Time;durP1;ratioP1;P1;durP2;ratioP2;P2;SDS_P1;SDS_P2;PMS_P1;PMS_P2;Temp;Humidity;BMP_temperature;BMP_pressure;BME280_temperature;BME280_humidity;BME280_pressure;Samples;Min_cycle;Max_cycle;Signal;HPM_P1;HPM_P2
2021/12/22 00:00:58;;;;;;;22.03;12.07;;;;;;;-4.63;100.00;101077.69;4986742;28;20226;-63
2021/12/22 00:03:24;;;;;;;23.27;11.67;;;;;;;-4.74;100.00;101065.75;5020842;28;20432;-63
2021/12/22 00:05:51;;;;;;;18.03;9.97;;;;;;;-4.79;100.00;101062.25;5032508;28;20205;-63
2021/12/22 00:08:17;;;;;;;16.37;10.80;;;;;;;-4.70;100.00;101066.66;5016761;28;20209;-63
2021/12/22 00:10:44;;;;;;;20.13;10.47;;;;;;;-4.72;100.00;101068.28;5007912;28;20484;-63
2021/12/22 00:13:09;;;;;;;21.10;10.10;;;;;;;-4.66;100.00;101070.06;5022398;28;20503;-63
2021/12/22 00:15:35;;;;;;;14.50;10.37;;;;;;;-4.62;100.00;101065.16;5006833;28;20480;-63
2021/12/22 00:18:00;;;;;;;18.90;10.40;;;;;;;-4.56;100.00;101075.34;5023782;28;20681;-63
2021/12/22 00:20:26;;;;;;;20.00;10.93;;;;;;;-4.53;100.00;101087.13;4999738;28;20700;-64
2021/12/22 00:22:51;;;;;;;17.97;10.27;;;;;;;-4.56;100.00;101090.41;5013269;28;20600;-64
2021/12/22 00:25:17;;;;;;;14.17;10.17;;;;;;;-4.57;100.00;101090.38;4998071;28;20186;-63
2021/12/22 00:27:42;;;;;;;18.13;9.97;;;;;;;-4.61;100.00;101084.44;4998967;28;20202;-63
2021/12/22 00:30:09;;;;;;;16.43;9.60;;;;;;;-4.63;100.00;101085.22;4985477;28;20178;-63
2021/12/22 00:32:36;;;;;;;13.43;9.00;;;;;;;-4.71;100.00;101092.56;5026246;28;20569;-63
2021/12/22 00:35:03;;;;;;;13.77;8.90;;;;;;;-4.74;100.00;101077.44;5012071;28;20421;-63
2021/12/22 00:37:29;;;;;;;14.70;9.17;;;;;;;-4.78;100.00;101075.66;5012116;28;20507;-63
2021/12/22 00:39:57;;;;;;;17.90;9.13;;;;;;;-4.85;100.00;101087.19;5012322;28;20812;-63
2021/12/22 00:42:24;;;;;;;19.33;9.43;;;;;;;-4.81;100.00;101083.09;5017828;28;20514;-63
2021/12/22 00:44:52;;;;;;;15.07;9.10;;;;;;;-4.82;100.00;101076.41;5012327;28;20413;-63
2021/12/22 00:47:19;;;;;;;19.60;8.87;;;;;;;-4.79;100.00;101081.50;5011873;28;20492;-63
2021/12/22 00:49:44;;;;;;;12.50;8.90;;;;;;;-4.82;100.00;101074.75;5012092;28;20417;-63
2021/12/22 00:52:09;;;;;;;16.60;10.37;;;;;;;-4.84;100.00;101081.38;5001875;28;20568;-62
2021/12/22 00:54:35;;;;;;;14.70;9.83;;;;;;;-4.65;100.00;101082.69;5011729;28;20635;-62
2021/12/22 00:57:05;;;;;;;19.10;10.23;;;;;;;-4.61;100.00;101086.13;5011718;28;20206;-63
2021/12/22 00:59:33;;;;;;;19.20;10.00;;;;;;;-4.34;100.00;101093.44;5012323;28;20179;-63
2021/12/22 01:01:59;;;;;;;20.10;10.90;;;;;;;-4.22;100.00;101093.72;5003448;28;20496;-63
2021/12/22 01:04:25;;;;;;;18.47;10.70;;;;;;;-4.28;100.00;101088.56;5011640;28;20426;-63
2021/12/22 01:06:50;;;;;;;17.50;10.47;;;;;;;-4.38;100.00;101084.13;5011709;28;20445;-63
2021/12/22 01:09:15;;;;;;;18.10;10.80;;;;;;;-4.56;100.00;101082.88;5011518;28;20209;-63
2021/12/22 01:11:41;;;;;;;13.27;9.80;;;;;;;-4.66;100.00;101091.03;5014233;28;21699;-63
2021/12/22 01:14:06;;;;;;;17.13;10.30;;;;;;;-4.64;100.00;101083.53;5014465;28;20597;-63
2021/12/22 01:16:32;;;;;;;17.53;10.40;;;;;;;-4.73;100.00;101096.69;5011438;28;20203;-63
2021/12/22 01:19:01;;;;;;;21.87;10.77;;;;;;;-4.72;100.00;101091.72;5011607;28;20269;-64
2021/12/22 01:21:40;;;;;;;14.97;9.53;;;;;;;-4.73;100.00;101094.19;5010939;28;20650;-63
2021/12/22 01:26:45;;;;;;;16.30;10.03;;;;;;;-4.79;100.00;101097.38;5005195;28;21136;-63
2021/12/22 01:29:11;;;;;;;17.03;9.10;;;;;;;-4.83;100.00;101092.28;5009855;28;20470;-63
2021/12/22 01:31:39;;;;;;;14.37;9.47;;;;;;;-4.88;100.00;101089.66;5006678;28;21241;-63
2021/12/22 01:34:04;;;;;;;12.87;9.03;;;;;;;-4.90;100.00;101093.78;5009930;28;20435;-63
2021/12/22 01:36:29;;;;;;;14.80;9.90;;;;;;;-4.91;100.00;101092.94;5011134;28;20457;-63
2021/12/22 01:38:55;;;;;;;15.47;9.57;;;;;;;-4.88;100.00;101097.19;5011262;28;20201;-63
2021/12/22 01:41:20;;;;;;;14.43;9.93;;;;;;;-4.92;100.00;101095.41;5002967;28;20257;-63
2021/12/22 01:43:47;;;;;;;16.87;10.23;;;;;;;-4.95;100.00;101103.72;4996844;28;20183;-63
2021/12/22 01:49:11;;;;;;;13.80;9.40;;;;;;;-5.06;100.00;101105.94;5010874;28;21054;-63
2021/12/22 01:52:00;;;;;;;20.00;9.93;;;;;;;-5.21;100.00;101108.03;5006413;28;20488;-63
2021/12/22 01:54:33;;;;;;;12.83;8.70;;;;;;;-5.17;100.00;101109.84;4991740;28;20756;-63
2021/12/22 01:57:01;;;;;;;14.97;9.73;;;;;;;-5.13;100.00;101105.75;4995576;28;20455;-63
2021/12/22 01:59:28;;;;;;;14.53;9.30;;;;;;;-5.17;100.00;101112.34;5010563;28;20910;-63
2021/12/22 02:01:53;;;;;;;14.90;10.07;;;;;;;-5.15;100.00;101104.84;5015023;28;20573;-63
2021/12/22 02:04:19;;;;;;;17.20;9.97;;;;;;;-5.15;100.00;101113.22;4993473;28;20905;-63
2021/12/22 02:06:46;;;;;;;16.33;9.87;;;;;;;-5.19;100.00;101107.28;5003994;28;20234;-63
2021/12/22 02:09:18;;;;;;;16.77;10.43;;;;;;;-5.19;100.00;101106.44;5010658;28;20238;-63
2021/12/22 02:11:43;;;;;;;17.17;10.63;;;;;;;-5.19;100.00;101113.97;5011880;28;20536;-63
2021/12/22 02:14:09;;;;;;;13.80;9.13;;;;;;;-5.23;100.00;101113.03;4993121;28;20448;-63
2021/12/22 02:16:38;;;;;;;17.27;9.53;;;;;;;-5.25;100.00;101114.63;5008981;28;20692;-63
2021/12/22 02:19:06;;;;;;;14.70;9.83;;;;;;;-5.26;100.00;101112.09;5009191;28;20607;-63
2021/12/22 02:21:38;;;;;;;14.57;9.13;;;;;;;-5.26;100.00;101109.59;5011355;28;20814;-64
2021/12/22 02:24:04;;;;;;;13.33;9.63;;;;;;;-5.26;100.00;101110.44;5013593;28;20425;-63
2021/12/22 02:26:44;;;;;;;14.97;9.87;;;;;;;-5.28;100.00;101118.75;5010270;28;20472;-63
2021/12/22 02:29:21;;;;;;;12.20;8.10;;;;;;;-5.23;100.00;101124.72;5010468;28;20210;-63
2021/12/22 02:32:05;;;;;;;12.50;9.67;;;;;;;-5.21;100.00;101115.56;5010563;28;20490;-63
2021/12/22 02:34:39;;;;;;;24.13;9.57;;;;;;;-5.22;100.00;101124.75;4991755;28;20532;-63
2021/12/22 02:37:10;;;;;;;25.23;11.43;;;;;;;-5.25;100.00;101108.78;5003348;28;20506;-62
2021/12/22 02:39:35;;;;;;;16.90;10.23;;;;;;;-5.18;100.00;101114.00;5010897;28;20430;-64
2021/12/22 02:42:01;;;;;;;16.07;9.00;;;;;;;-5.18;100.00;101106.47;5015571;28;20481;-63
2021/12/22 02:44:26;;;;;;;14.70;9.87;;;;;;;-5.23;100.00;101108.00;4991595;28;20177;-63
2021/12/22 02:46:51;;;;;;;14.23;9.80;;;;;;;-5.19;100.00;101106.44;5010377;28;20211;-63
2021/12/22 02:49:17;;;;;;;16.27;10.73;;;;;;;-5.19;100.00;101111.44;5010164;28;20234;-63
2021/12/22 02:51:42;;;;;;;14.17;9.83;;;;;;;-5.18;100.00;101106.47;5013079;28;20261;-62
2021/12/22 02:56:38;;;;;;;15.07;10.80;;;;;;;-5.13;100.00;101111.59;5010256;28;20209;-63
2021/12/22 03:04:14;;;;;;;16.63;10.30;;;;;;;-5.04;100.00;101105.97;5011351;28;20429;-63
2021/12/22 03:07:06;;;;;;;14.33;10.90;;;;;;;-5.00;100.00;101109.41;5010121;28;20441;-63
2021/12/22 03:09:29;;;;;;;15.20;10.20;;;;;;;-5.07;100.00;101109.25;4990809;28;20955;-64
2021/12/22 03:11:58;;;;;;;17.80;10.40;;;;;;;-5.05;100.00;101116.81;4995435;28;20483;-64
2021/12/22 03:14:24;;;;;;;18.77;10.20;;;;;;;-5.05;100.00;101119.31;5003980;28;20535;-64
2021/12/22 03:16:51;;;;;;;14.70;10.23;;;;;;;-5.09;100.00;101108.34;5009928;28;20460;-64
2021/12/22 03:19:19;;;;;;;14.77;10.27;;;;;;;-5.07;100.00;101111.78;5010195;28;20425;-63
2021/12/22 03:21:46;;;;;;;21.03;10.53;;;;;;;-5.11;100.00;101111.66;5012738;28;20944;-63
2021/12/22 03:24:13;;;;;;;15.50;10.67;;;;;;;-5.00;100.00;101116.94;5008017;28;20844;-63
2021/12/22 03:26:44;;;;;;;21.17;11.27;;;;;;;-4.97;100.00;101110.34;5011239;28;20527;-63
2021/12/22 03:29:14;;;;;;;18.03;11.03;;;;;;;-4.98;100.00;101106.13;5013588;28;20864;-64
2021/12/22 03:31:41;;;;;;;16.07;10.40;;;;;;;-4.99;100.00;101103.59;5016484;28;20997;-63
2021/12/22 03:34:07;;;;;;;13.93;10.40;;;;;;;-5.01;100.00;101106.06;5015297;28;20433;-63
2021/12/22 03:36:33;;;;;;;16.80;11.03;;;;;;;-4.98;100.00;101103.63;5013803;28;20449;-63
2021/12/22 03:38:58;;;;;;;19.77;11.77;;;;;;;-5.01;100.00;101106.06;5013602;28;20428;-63
2021/12/22 03:41:24;;;;;;;22.80;12.13;;;;;;;-4.90;100.00;101098.78;5005417;28;20222;-63
2021/12/22 03:43:49;;;;;;;15.23;10.40;;;;;;;-4.83;100.00;101095.63;5018194;28;20174;-63
2021/12/22 03:46:15;;;;;;;19.67;11.63;;;;;;;-4.90;100.00;101091.25;5013152;28;20570;-63
2021/12/22 03:48:41;;;;;;;22.97;12.33;;;;;;;-4.72;100.00;101098.41;5013670;28;20196;-63
2021/12/22 03:51:06;;;;;;;20.20;12.00;;;;;;;-4.63;100.00;101105.31;5010935;28;20737;-63
2021/12/22 03:53:32;;;;;;;21.63;11.47;;;;;;;-4.63;100.00;101103.63;5008083;28;20419;-62
2021/12/22 03:55:57;;;;;;;17.70;10.90;;;;;;;-4.72;100.00;101098.41;5013160;28;20203;-63
2021/12/22 03:58:24;;;;;;;18.77;11.07;;;;;;;-4.67;100.00;101103.53;5011746;28;20190;-63
2021/12/22 04:00:51;;;;;;;21.77;11.30;;;;;;;-4.65;100.00;101102.78;4999073;28;20225;-62
2021/12/22 04:03:21;;;;;;;23.03;12.13;;;;;;;-4.63;100.00;101100.28;5011300;28;20942;-64
2021/12/22 04:05:47;;;;;;;17.23;11.93;;;;;;;-4.66;100.00;101102.72;5012620;28;20886;-62
2021/12/22 04:08:15;;;;;;;19.93;11.70;;;;;;;-4.63;100.00;101102.78;5011199;28;20460;-64
2021/12/22 04:10:41;;;;;;;18.67;11.67;;;;;;;-4.66;100.00;101090.16;5003898;28;20528;-63
2021/12/22 04:13:07;;;;;;;19.43;11.53;;;;;;;-4.72;100.00;101096.72;4983723;28;20818;-64
2021/12/22 04:15:34;;;;;;;15.80;10.47;;;;;;;-4.81;100.00;101090.63;4975444;28;20760;-63
2021/12/22 04:17:59;;;;;;;17.40;11.07;;;;;;;-4.89;100.00;101091.31;5023967;28;20179;-62
2021/12/22 04:20:27;;;;;;;18.07;10.77;;;;;;;-4.88;100.00;101089.66;5005447;28;20578;-62
2021/12/22 04:22:52;;;;;;;15.40;11.07;;;;;;;-4.87;100.00;101094.69;5021583;28;20193;-63
2021/12/22 04:25:21;;;;;;;20.10;10.40;;;;;;;-4.92;100.00;101087.88;5012390;28;20442;-63
2021/12/22 04:27:56;;;;;;;14.10;10.33;;;;;;;-5.07;100.00;101089.19;5012213;28;20217;-63
2021/12/22 04:30:24;;;;;;;20.57;11.80;;;;;;;-5.00;100.00;101094.34;4982133;28;20538;-63
2021/12/22 04:32:50;;;;;;;21.67;11.90;;;;;;;-5.07;100.00;101099.22;4999400;28;20906;-63
2021/12/22 04:35:16;;;;;;;17.57;10.37;;;;;;;-5.13;100.00;101091.53;4978291;28;20438;-64
2021/12/22 04:37:41;;;;;;;19.37;11.50;;;;;;;-5.09;100.00;101095.81;4992304;28;20958;-62
2021/12/22 04:40:07;;;;;;;18.70;11.77;;;;;;;-5.18;100.00;101093.09;4983054;28;20435;-63
2021/12/22 04:42:33;;;;;;;14.80;11.00;;;;;;;-5.06;100.00;101082.50;5026958;28;20184;-63
2021/12/22 04:45:00;;;;;;;27.47;17.43;;;;;;;-5.12;100.00;101077.31;5010651;28;20430;-62
2021/12/22 04:47:26;;;;;;;20.43;12.57;;;;;;;-5.08;100.00;101086.66;5011905;28;20678;-63
2021/12/22 04:49:51;;;;;;;17.77;12.43;;;;;;;-5.11;100.00;101077.38;5012175;28;20438;-63
2021/12/22 04:52:20;;;;;;;20.80;12.47;;;;;;;-5.15;100.00;101075.59;5003087;28;20223;-63
2021/12/22 04:55:02;;;;;;;20.40;11.00;;;;;;;-5.18;100.00;101076.34;5011886;28;20192;-62
2021/12/22 04:57:27;;;;;;;22.17;11.53;;;;;;;-5.19;100.00;101076.31;5011767;28;20449;-63
2021/12/22 04:59:53;;;;;;;17.70;11.10;;;;;;;-5.27;100.00;101073.63;5011763;28;20422;-63
2021/12/22 05:02:18;;;;;;;16.63;10.87;;;;;;;-5.29;100.00;101067.72;5015607;28;20712;-63
2021/12/22 05:04:43;;;;;;;20.50;11.97;;;;;;;-5.29;100.00;101074.41;5011867;28;20185;-63
2021/12/22 05:07:08;;;;;;;18.33;11.87;;;;;;;-5.33;100.00;101078.47;5011759;28;20288;-63
2021/12/22 05:09:34;;;;;;;19.30;10.73;;;;;;;-5.34;100.00;101071.75;5011566;28;20214;-63
2021/12/22 05:11:59;;;;;;;18.50;12.17;;;;;;;-5.38;100.00;101080.88;5016969;28;20240;-63
2021/12/22 05:14:24;;;;;;;17.23;10.83;;;;;;;-5.43;100.00;101079.91;5011658;28;20213;-63
2021/12/22 05:16:52;;;;;;;19.53;11.83;;;;;;;-5.40;100.00;101079.13;5011521;28;20200;-63
2021/12/22 05:19:18;;;;;;;17.27;11.17;;;;;;;-5.37;100.00;101074.19;5011627;28;20181;-64
2021/12/22 05:21:44;;;;;;;16.73;11.17;;;;;;;-5.37;100.00;101079.19;5014534;28;20920;-63
2021/12/22 05:24:10;;;;;;;17.53;11.10;;;;;;;-5.53;100.00;101080.47;4998680;28;20191;-62
2021/12/22 05:26:36;;;;;;;18.83;12.20;;;;;;;-5.45;100.00;101084.00;5011049;28;20805;-63
2021/12/22 05:29:02;;;;;;;21.13;12.07;;;;;;;-5.46;100.00;101083.97;5011227;28;20198;-63
2021/12/22 05:31:27;;;;;;;23.77;12.03;;;;;;;-5.45;100.00;101085.69;5012849;28;20481;-62
2021/12/22 05:33:53;;;;;;;22.07;12.80;;;;;;;-5.41;100.00;101088.31;5015728;28;20189;-63
2021/12/22 05:36:19;;;;;;;16.67;12.67;;;;;;;-5.50;100.00;101080.53;5011106;28;20716;-63
2021/12/22 05:38:44;;;;;;;20.40;12.67;;;;;;;-5.51;100.00;101079.69;5011156;28;20253;-63
2021/12/22 05:41:10;;;;;;;21.73;12.63;;;;;;;-5.43;100.00;101089.06;5009902;28;20229;-62
2021/12/22 05:43:35;;;;;;;19.37;11.57;;;;;;;-5.43;100.00;101084.03;5005349;28;20174;-63
2021/12/22 05:46:01;;;;;;;20.10;12.10;;;;;;;-5.38;100.00;101083.38;4991532;28;20197;-63
2021/12/22 05:48:26;;;;;;;21.93;13.33;;;;;;;-5.44;100.00;101083.22;5006189;28;20267;-63
2021/12/22 05:50:56;;;;;;;22.23;12.37;;;;;;;-5.43;100.00;101079.03;5002415;28;20741;-63
2021/12/22 05:53:22;;;;;;;18.43;12.00;;;;;;;-5.46;100.00;101074.78;4999836;28;20240;-63
2021/12/22 05:55:47;;;;;;;23.27;12.50;;;;;;;-5.46;100.00;101076.47;4997621;28;20825;-63
2021/12/22 05:58:12;;;;;;;18.90;11.93;;;;;;;-5.43;100.00;101081.53;5011099;28;20176;-63
2021/12/22 06:00:38;;;;;;;21.30;12.60;;;;;;;-5.49;100.00;101091.41;5005305;28;20778;-63
2021/12/22 06:03:03;;;;;;;18.17;13.07;;;;;;;-5.48;100.00;101093.09;5013448;28;20182;-64
2021/12/22 06:05:28;;;;;;;21.63;13.23;;;;;;;-5.48;100.00;101088.97;5006071;28;20308;-63
2021/12/22 06:07:54;;;;;;;20.67;13.20;;;;;;;-5.45;100.00;101096.56;5010611;28;20199;-63
2021/12/22 06:10:19;;;;;;;20.13;13.17;;;;;;;-5.46;100.00;101104.88;5003045;28;20287;-64
2021/12/22 06:12:45;;;;;;;23.50;13.40;;;;;;;-5.46;100.00;101109.88;5032594;28;20216;-64
2021/12/22 06:15:10;;;;;;;23.17;13.53;;;;;;;-5.29;100.00;101104.50;5018264;28;20650;-64
2021/12/22 06:17:35;;;;;;;19.73;13.33;;;;;;;-5.17;100.00;101107.34;5003116;28;20509;-63
2021/12/22 06:20:03;;;;;;;20.93;12.70;;;;;;;-5.20;100.00;101112.25;5014971;28;20256;-63
2021/12/22 06:22:31;;;;;;;19.87;12.90;;;;;;;-5.11;100.00;101114.16;5002215;28;20223;-63
2021/12/22 06:24:56;;;;;;;21.23;13.27;;;;;;;-5.15;100.00;101113.22;5016431;28;20513;-64
2021/12/22 06:27:22;;;;;;;23.53;13.37;;;;;;;-5.19;100.00;101117.31;5008730;28;20913;-64
2021/12/22 06:29:47;;;;;;;24.63;13.13;;;;;;;-5.24;100.00;101123.03;5010179;28;20220;-63
2021/12/22 06:32:12;;;;;;;26.03;13.57;;;;;;;-5.32;100.00;101124.47;5014112;28;20381;-63
2021/12/22 06:34:38;;;;;;;22.93;13.30;;;;;;;-5.35;100.00;101120.22;4990759;28;20234;-63
2021/12/22 06:37:04;;;;;;;20.43;12.80;;;;;;;-5.40;100.00;101120.09;4995470;28;20213;-63
2021/12/22 06:39:29;;;;;;;19.63;12.67;;;;;;;-5.49;100.00;101111.47;5010524;28;20169;-63
2021/12/22 06:41:55;;;;;;;21.07;13.17;;;;;;;-5.56;100.00;101115.47;5000958;28;20214;-63
2021/12/22 06:44:23;;;;;;;21.67;13.33;;;;;;;-5.53;100.00;101110.56;5011227;28;20177;-63
2021/12/22 06:46:49;;;;;;;19.37;12.40;;;;;;;-5.59;100.00;101121.25;5010236;28;20277;-63
2021/12/22 06:49:14;;;;;;;19.50;12.73;;;;;;;-5.59;100.00;101117.91;5010334;28;20589;-63
2021/12/22 06:51:40;;;;;;;20.33;12.73;;;;;;;-5.60;100.00;101116.19;5012681;28;20483;-63
2021/12/22 06:54:05;;;;;;;19.63;12.97;;;;;;;-5.59;100.00;101118.75;5011402;28;20174;-63
2021/12/22 06:56:31;;;;;;;22.13;13.00;;;;;;;-5.59;100.00;101117.91;5008670;28;20658;-63
2021/12/22 06:58:57;;;;;;;20.83;13.00;;;;;;;-5.61;100.00;101117.84;5010211;28;20260;-63
2021/12/22 07:01:23;;;;;;;21.07;12.50;;;;;;;-5.67;100.00;101123.53;5013381;28;20217;-63
2021/12/22 07:03:49;;;;;;;23.73;13.10;;;;;;;-5.68;100.00;101120.97;5011345;28;20891;-63
2021/12/22 07:06:15;;;;;;;18.17;12.67;;;;;;;-5.62;100.00;101125.31;5014072;28;20450;-63
2021/12/22 07:08:40;;;;;;;20.83;13.17;;;;;;;-5.71;100.00;101115.88;5013971;28;20736;-63
2021/12/22 07:11:06;;;;;;;23.33;13.33;;;;;;;-5.66;100.00;101126.88;5012383;28;20228;-63
2021/12/22 07:13:31;;;;;;;23.20;12.80;;;;;;;-5.64;100.00;101130.31;5009022;28;20178;-63
2021/12/22 07:15:58;;;;;;;20.20;13.80;;;;;;;-5.67;100.00;101130.19;5000799;28;20222;-63
2021/12/22 07:18:23;;;;;;;22.37;14.27;;;;;;;-5.53;100.00;101133.97;5014095;28;20181;-63
2021/12/22 07:20:49;;;;;;;23.93;13.30;;;;;;;-5.48;100.00;101140.75;5010198;28;20845;-63
2021/12/22 07:23:15;;;;;;;20.83;13.33;;;;;;;-5.52;100.00;101135.66;5022198;28;20707;-63
2021/12/22 07:25:40;;;;;;;26.10;15.60;;;;;;;-5.44;100.00;101140.03;5014136;28;21558;-63
2021/12/22 07:28:08;;;;;;;21.33;13.17;;;;;;;-5.45;100.00;101144.19;5015164;28;20232;-63
2021/12/22 07:30:33;;;;;;;24.63;14.33;;;;;;;-5.41;100.00;101146.00;5010610;28;20213;-63
2021/12/22 07:32:59;;;;;;;26.33;14.33;;;;;;;-5.40;100.00;101147.66;5025686;28;20436;-63
2021/12/22 07:35:29;;;;;;;18.73;13.60;;;;;;;-5.42;100.00;101150.94;5018656;28;20603;-63
2021/12/22 07:38:07;;;;;;;21.90;14.10;;;;;;;-5.39;100.00;101154.41;5014950;28;20173;-63
2021/12/22 07:40:33;;;;;;;22.83;13.00;;;;;;;-5.40;100.00;101155.19;5012333;28;20541;-63
2021/12/22 07:42:58;;;;;;;25.57;13.37;;;;;;;-5.40;100.00;101154.34;5026012;28;20433;-62
2021/12/22 07:45:23;;;;;;;20.77;13.90;;;;;;;-5.37;100.00;101151.91;5018183;28;20781;-63
2021/12/22 07:47:49;;;;;;;20.93;14.53;;;;;;;-5.29;100.00;101149.66;5015722;28;20640;-63
2021/12/22 07:50:14;;;;;;;22.40;14.27;;;;;;;-5.23;100.00;101162.34;5009023;28;20402;-63
2021/12/22 07:52:40;;;;;;;23.33;13.27;;;;;;;-5.15;100.00;101158.38;5027162;28;20193;-63
2021/12/22 07:55:05;;;;;;;23.10;13.07;;;;;;;-5.08;100.00;101151.88;5024000;28;20182;-63
2021/12/22 07:57:31;;;;;;;21.00;13.80;;;;;;;-5.00;100.00;101147.91;5014397;28;20339;-62
2021/12/22 07:59:56;;;;;;;20.30;14.33;;;;;;;-4.85;100.00;101139.91;5013986;28;20276;-63
2021/12/22 08:02:21;;;;;;;26.87;15.10;;;;;;;-4.83;100.00;101140.81;4990516;28;20225;-63
2021/12/22 08:04:47;;;;;;;23.47;13.83;;;;;;;-4.80;100.00;101140.03;5014077;28;20635;-62
2021/12/22 08:07:12;;;;;;;25.67;13.40;;;;;;;-4.67;100.00;101139.53;5014362;28;20209;-63
2021/12/22 08:09:37;;;;;;;24.03;14.60;;;;;;;-4.63;100.00;101142.97;5015228;28;20302;-63
2021/12/22 08:12:06;;;;;;;34.87;15.23;;;;;;;-4.74;100.00;101137.69;5005609;28;20251;-63
2021/12/22 08:14:33;;;;;;;23.80;14.60;;;;;;;-4.55;100.00;101132.31;5005588;28;20589;-64
2021/12/22 08:16:58;;;;;;;25.40;15.30;;;;;;;-4.59;100.00;101135.56;5005398;28;20492;-63
2021/12/22 08:19:24;;;;;;;22.63;15.57;;;;;;;-4.54;100.00;101135.66;5008782;28;20593;-63
2021/12/22 08:21:49;;;;;;;22.13;14.43;;;;;;;-4.59;100.00;101132.19;5003490;28;20258;-64
2021/12/22 08:24:14;;;;;;;20.47;15.90;;;;;;;-4.63;100.00;101132.94;5002777;28;20210;-62
2021/12/22 08:26:40;;;;;;;26.30;17.40;;;;;;;-4.50;100.00;101141.59;5004511;28;20430;-64
2021/12/22 08:29:06;;;;;;;28.43;17.13;;;;;;;-4.42;100.00;101133.44;5005174;28;20608;-64
2021/12/22 08:31:31;;;;;;;23.13;15.00;;;;;;;-4.28;100.00;101132.91;4977066;28;20225;-63
2021/12/22 08:33:56;;;;;;;20.97;15.53;;;;;;;-4.30;100.00;101132.88;4995054;28;20178;-63
2021/12/22 08:39:11;;;;;;;20.50;15.17;;;;;;;-4.42;100.00;101130.91;5005652;28;20226;-64
2021/12/22 08:41:40;;;;;;;24.37;17.07;;;;;;;-4.34;100.00;101140.31;5006486;28;20468;-64
2021/12/22 08:44:08;;;;;;;25.27;15.80;;;;;;;-4.15;100.00;101147.44;4995312;28;20596;-64
2021/12/22 08:46:36;;;;;;;25.33;16.70;;;;;;;-4.04;100.00;101142.69;5003395;28;20425;-63
2021/12/22 08:49:03;;;;;;;21.37;16.70;;;;;;;-3.98;100.00;101139.44;5012356;28;20859;-64
2021/12/22 08:51:29;;;;;;;22.37;15.90;;;;;;;-3.69;100.00;101145.09;5003049;28;21145;-63
2021/12/22 08:53:54;;;;;;;24.13;16.70;;;;;;;-3.64;100.00;101138.47;5003533;28;20526;-64
2021/12/22 08:56:20;;;;;;;21.97;16.30;;;;;;;-2.99;100.00;101132.19;5001395;28;20205;-63
2021/12/22 08:58:46;;;;;;;24.63;16.50;;;;;;;-2.03;100.00;101138.72;5009070;28;20174;-64
2021/12/22 09:01:11;;;;;;;19.70;14.83;;;;;;;-1.01;94.04;101126.47;4999071;28;20474;-64
2021/12/22 09:03:36;;;;;;;20.63;13.50;;;;;;;-0.54;87.70;101120.13;5009441;28;20264;-64
2021/12/22 09:06:02;;;;;;;16.90;12.23;;;;;;;0.14;82.12;101123.94;5008680;28;20210;-64
2021/12/22 09:08:28;;;;;;;14.37;12.20;;;;;;;0.45;78.02;101123.25;4997551;28;20196;-63
2021/12/22 09:10:54;;;;;;;14.87;10.30;;;;;;;0.70;78.30;101116.56;4997703;28;20233;-64
2021/12/22 09:13:20;;;;;;;12.73;10.40;;;;;;;0.93;73.10;101124.22;4994126;28;20257;-64
2021/12/22 09:15:47;;;;;;;12.53;10.57;;;;;;;1.95;70.43;101118.25;4991897;28;20280;-65
2021/12/22 09:18:13;;;;;;;17.03;9.63;;;;;;;2.30;68.00;101116.47;4991925;28;20269;-64
2021/12/22 09:20:38;;;;;;;13.13;9.67;;;;;;;2.02;66.57;101117.41;4985023;28;20312;-64
2021/12/22 09:23:04;;;;;;;12.67;10.23;;;;;;;0.95;70.06;101119.13;4999951;28;20337;-65
2021/12/22 09:25:29;;;;;;;10.93;9.63;;;;;;;-0.54;76.83;101118.44;4993560;28;20193;-64
2021/12/22 09:27:55;;;;;;;12.83;10.70;;;;;;;-1.96;82.87;101110.25;4992117;28;20296;-63
2021/12/22 09:30:20;;;;;;;14.60;10.87;;;;;;;-1.93;86.90;101118.66;4985558;28;20178;-64
2021/12/22 09:32:45;;;;;;;15.43;11.00;;;;;;;-2.04;88.30;101116.03;5000138;28;20416;-64
2021/12/22 09:35:11;;;;;;;19.07;11.60;;;;;;;-2.33;89.24;101109.72;4993652;28;20278;-63
2021/12/22 09:37:36;;;;;;;17.83;11.03;;;;;;;-2.42;91.07;101104.53;4990446;28;20290;-66
2021/12/22 09:40:04;;;;;;;15.47;11.23;;;;;;;-2.33;91.19;101099.66;4991257;28;20172;-64
2021/12/22 09:42:30;;;;;;;14.00;11.10;;;;;;;-2.27;91.96;101097.22;4999463;28;20268;-63
2021/12/22 09:44:59;;;;;;;15.87;11.67;;;;;;;-2.56;92.14;101101.00;5010400;28;20173;-61
2021/12/22 09:47:29;;;;;;;15.03;10.70;;;;;;;-2.58;92.40;101098.41;5011562;28;20674;-63
2021/12/22 09:52:27;;;;;;;16.97;11.77;;;;;;;-2.31;92.85;101095.50;5013271;28;20249;-62
2021/12/22 09:54:55;;;;;;;15.73;11.77;;;;;;;-1.85;90.56;101097.78;5016387;28;20219;-63
2021/12/22 09:57:22;;;;;;;18.53;11.37;;;;;;;-1.07;87.83;101091.06;5013096;28;20444;-63
2021/12/22 09:59:49;;;;;;;17.33;11.30;;;;;;;-0.27;82.14;101085.75;5021534;28;20272;-63
2021/12/22 10:02:16;;;;;;;15.63;11.03;;;;;;;-0.45;79.74;101086.50;5024162;28;20222;-62
2021/12/22 10:04:42;;;;;;;14.17;10.13;;;;;;;-0.84;80.86;101088.75;5010575;28;20178;-62
2021/12/22 10:07:09;;;;;;;20.73;10.77;;;;;;;-1.09;82.74;101095.22;5010775;28;20274;-62
2021/12/22 10:09:44;;;;;;;14.13;10.30;;;;;;;-1.06;84.40;101091.06;5010619;28;20209;-62
2021/12/22 10:12:20;;;;;;;18.03;11.23;;;;;;;-0.63;82.92;101088.06;5017289;28;20225;-62
2021/12/22 10:14:58;;;;;;;16.77;10.73;;;;;;;-1.39;82.44;101084.00;5009699;28;20190;-62
2021/12/22 10:17:35;;;;;;;16.73;11.70;;;;;;;-1.57;84.41;101077.09;5014123;28;20210;-63
2021/12/22 10:20:04;;;;;;;13.13;10.23;;;;;;;-1.85;86.29;101077.63;5013518;28;20174;-63
2021/12/22 10:22:36;;;;;;;15.30;12.17;;;;;;;-1.92;87.59;101069.94;4978205;28;20642;-62
2021/12/22 10:25:10;;;;;;;13.20;11.80;;;;;;;-1.90;88.54;101071.63;4990720;28;20175;-62
2021/12/22 10:27:37;;;;;;;18.70;12.03;;;;;;;-1.58;89.25;101061.09;4971714;28;20585;-63
2021/12/22 10:30:36;;;;;;;19.07;11.67;;;;;;;-1.54;87.64;101065.34;4973266;28;20276;-63
2021/12/22 10:33:10;;;;;;;16.93;11.50;;;;;;;-1.55;87.55;101058.63;4987749;28;20818;-62
2021/12/22 10:35:38;;;;;;;17.97;12.43;;;;;;;-1.63;87.47;101060.19;4987279;28;20198;-62
2021/12/22 10:38:04;;;;;;;15.40;12.40;;;;;;;-1.59;87.45;101056.03;4988160;28;20537;-62
2021/12/22 10:40:31;;;;;;;16.03;12.10;;;;;;;-1.80;87.50;101048.25;4977997;28;20266;-62
2021/12/22 10:42:58;;;;;;;15.30;12.63;;;;;;;-1.68;88.56;101050.03;4980932;28;20796;-62
2021/12/22 10:45:25;;;;;;;17.47;12.50;;;;;;;-1.70;87.63;101051.72;4980407;28;20194;-62
2021/12/22 10:50:39;;;;;;;18.47;12.83;;;;;;;-1.39;87.62;101047.00;4982156;28;20300;-61
2021/12/22 10:53:06;;;;;;;16.47;12.33;;;;;;;-1.48;86.51;101037.66;4988095;28;20210;-62
2021/12/22 10:55:37;;;;;;;18.70;13.07;;;;;;;-1.35;86.62;101030.22;4987656;28;20194;-62
2021/12/22 10:58:32;;;;;;;14.47;11.67;;;;;;;-1.35;86.76;101032.75;4976843;28;20212;-62
2021/12/22 11:01:26;;;;;;;16.90;13.17;;;;;;;-1.51;87.41;101026.69;4978265;28;20492;-62
2021/12/22 11:04:00;;;;;;;19.60;12.63;;;;;;;-1.46;87.87;101017.47;4960405;28;20188;-63
2021/12/22 11:06:29;;;;;;;17.83;12.93;;;;;;;-1.38;88.24;101012.50;4988004;28;20823;-62
2021/12/22 11:08:59;;;;;;;18.47;13.20;;;;;;;-1.28;87.12;101013.44;4988970;28;20217;-62
2021/12/22 11:11:39;;;;;;;21.23;13.17;;;;;;;-1.33;87.51;101011.72;4991161;28;20291;-62
2021/12/22 11:14:11;;;;;;;16.80;13.03;;;;;;;-1.16;87.74;101004.28;5012510;28;20991;-62
2021/12/22 11:16:49;;;;;;;19.70;13.30;;;;;;;-1.08;86.94;101000.97;5009486;28;20243;-62
2021/12/22 11:19:15;;;;;;;18.97;13.60;;;;;;;-1.20;86.86;101000.03;5010065;28;20197;-61
2021/12/22 11:22:00;;;;;;;21.97;14.93;;;;;;;-1.18;86.64;100997.53;5009543;28;20222;-62
2021/12/22 11:24:27;;;;;;;19.33;13.27;;;;;;;-1.20;86.56;101000.03;5008875;28;20581;-62
2021/12/22 11:26:52;;;;;;;21.37;14.00;;;;;;;-0.99;86.76;100996.00;5009482;28;20214;-62